MET'MAP v2.0
soon released !

Expected late october,
this new version will be
more efficient, smarter,
and hosted on a brand new
server x3 powerfull...
...and still free !


Not compatible ?
Try the mobile version !

LOG IN : | Subscribe | Disclaimer | Who is Orbifly ? |
ICAO code :

TAF - EGPL Benbecula - 30 Mar 2020 21:43 UTC - Data Source NOAA   


- Airport Elevation : 19 ft
- IATA code : BEB
- No reported NOTAMs.


EGPL - Benbecula

Latest METAR recorded : 2015/08/11 07:50 EGPL 110750Z 27004KT 9999 VCSH FEW012 BKN046 11/09 Q1017
Expired Forecast.

Source NOAA
ATIS : +44 1870 604 818


MET'MAP, your aeronautical weather chart ! - Copyright ORBIFLY December 2007

Programming & Development : Alexandra Zaïnal
Co-Developer : Marc-Olivier Méhu
Technical & hardware support : Manuel Goepfert
Concept & Financing : Baudouin d'Aumeries